Time;durP1;ratioP1;P1;durP2;ratioP2;P2;SDS_P1;SDS_P2;PMS_P1;PMS_P2;Temp;Humidity;BMP_temperature;BMP_pressure;BME280_temperature;BME280_humidity;BME280_pressure;Samples;Min_cycle;Max_cycle;Signal;HPM_P1;HPM_P2
2023/12/19 00:01:02;;;;;;;5.38;2.70;;;;;;;-142.57;100.00;55802.06;5033881;28;20026;-78
2023/12/19 00:03:28;;;;;;;6.65;3.40;;;;;;;-142.57;100.00;55820.25;5037028;28;20203;-79
2023/12/19 00:05:53;;;;;;;5.65;3.47;;;;;;;-142.57;100.00;55846.50;5050460;28;20105;-78
2023/12/19 00:08:19;;;;;;;6.78;3.50;;;;;;;-142.57;100.00;55810.13;5056700;28;20041;-79
2023/12/19 00:10:45;;;;;;;5.20;3.10;;;;;;;-142.57;100.00;55846.50;5048146;28;20037;-77
2023/12/19 00:13:10;;;;;;;5.88;3.15;;;;;;;-142.57;100.00;55812.16;5035870;28;20480;-78
2023/12/19 00:15:36;;;;;;;6.07;2.75;;;;;;;-142.57;100.00;55789.94;5014435;28;20048;-79
2023/12/19 00:18:01;;;;;;;5.43;2.85;;;;;;;-142.57;100.00;55840.44;5032441;28;20025;-77
2023/12/19 00:20:28;;;;;;;6.65;3.20;;;;;;;-142.57;100.00;55840.44;5032463;28;20021;-77
2023/12/19 00:22:54;;;;;;;4.63;2.58;;;;;;;-142.57;100.00;55832.38;5031832;28;20400;-77
2023/12/19 00:25:19;;;;;;;5.85;3.45;;;;;;;-142.57;100.00;55834.38;5032720;28;20018;-78
2023/12/19 00:27:45;;;;;;;7.95;3.67;;;;;;;-142.57;100.00;55858.63;5031757;28;20037;-78
2023/12/19 00:30:11;;;;;;;6.60;3.50;;;;;;;-142.57;100.00;55834.38;5027793;28;20094;-77
2023/12/19 00:32:36;;;;;;;6.28;3.60;;;;;;;-142.57;100.00;55806.09;5030549;28;20041;-77
2023/12/19 00:35:03;;;;;;;8.88;4.35;;;;;;;-142.57;100.00;55806.09;5031722;28;20730;-79
2023/12/19 00:37:28;;;;;;;8.00;4.95;;;;;;;-142.57;100.00;55802.06;5031190;28;20037;-78
2023/12/19 00:39:53;;;;;;;8.05;4.40;;;;;;;-142.57;100.00;55769.72;5014348;28;20028;-79
2023/12/19 00:42:19;;;;;;;7.97;4.15;;;;;;;-142.57;100.00;55743.47;5027785;28;20542;-77
2023/12/19 00:44:44;;;;;;;8.73;4.28;;;;;;;-142.57;100.00;55761.66;5031585;28;20171;-79
2023/12/19 00:47:10;;;;;;;6.70;4.28;;;;;;;-142.57;100.00;55763.66;5031975;28;20037;-78
2023/12/19 00:49:35;;;;;;;10.38;5.22;;;;;;;-142.57;100.00;55749.53;5031556;28;20037;-78
2023/12/19 00:52:01;;;;;;;11.10;5.72;;;;;;;-142.57;100.00;55765.69;5030995;28;20070;-78
2023/12/19 00:54:27;;;;;;;10.43;5.45;;;;;;;-142.57;100.00;55777.81;5032113;28;20101;-78
2023/12/19 00:56:52;;;;;;;9.45;5.57;;;;;;;-142.57;100.00;55749.53;5031346;28;20037;-77
2023/12/19 00:59:18;;;;;;;8.10;5.30;;;;;;;-142.57;100.00;55731.34;5022044;28;20034;-78
2023/12/19 01:01:43;;;;;;;10.35;5.78;;;;;;;-142.57;100.00;55735.38;5020754;28;20125;-78
2023/12/19 01:04:09;;;;;;;9.88;4.90;;;;;;;-142.57;100.00;55763.66;5030753;28;20044;-79
2023/12/19 01:06:38;;;;;;;12.57;5.30;;;;;;;-142.57;100.00;55715.16;5031339;28;20065;-77
2023/12/19 01:09:05;;;;;;;10.38;5.43;;;;;;;-142.57;100.00;55733.34;5020657;28;20036;-79
2023/12/19 01:11:30;;;;;;;14.93;6.13;;;;;;;-142.57;100.00;55713.16;5029277;28;20048;-81
2023/12/19 01:13:56;;;;;;;13.43;6.63;;;;;;;-142.57;100.00;55723.25;5030693;28;20042;-80
2023/12/19 01:16:21;;;;;;;11.23;5.82;;;;;;;-142.57;100.00;55713.16;5028263;28;20523;-81
2023/12/19 01:18:47;;;;;;;11.98;5.60;;;;;;;-142.57;100.00;55690.94;5028668;28;20033;-79
2023/12/19 01:21:13;;;;;;;9.45;4.85;;;;;;;-142.57;100.00;55713.16;5030241;28;20033;-80
2023/12/19 01:23:38;;;;;;;8.43;4.97;;;;;;;-142.57;100.00;55729.31;5030974;28;20037;-79
2023/12/19 01:26:04;;;;;;;9.55;5.88;;;;;;;-142.57;100.00;55745.47;5031277;28;20025;-77
2023/12/19 01:28:30;;;;;;;9.93;4.88;;;;;;;-142.57;100.00;55737.41;5026439;28;20021;-78
2023/12/19 01:30:55;;;;;;;9.98;5.85;;;;;;;-142.57;100.00;55741.44;5031116;28;20045;-79
2023/12/19 01:33:21;;;;;;;9.13;5.38;;;;;;;-142.57;100.00;55775.78;5030369;28;20029;-81
2023/12/19 01:35:46;;;;;;;8.38;4.90;;;;;;;-142.57;100.00;55773.78;5013520;28;20037;-76
2023/12/19 01:38:14;;;;;;;7.20;4.55;;;;;;;-142.57;100.00;55806.09;5030356;28;20030;-78
2023/12/19 01:40:40;;;;;;;8.40;4.80;;;;;;;-142.57;100.00;55789.94;5030733;28;20431;-78
2023/12/19 01:43:20;;;;;;;7.85;4.72;;;;;;;-142.57;100.00;55789.94;5028161;28;20049;-79
2023/12/19 01:45:48;;;;;;;7.88;4.22;;;;;;;-142.57;100.00;55761.66;5031295;28;20037;-79
2023/12/19 01:48:16;;;;;;;8.27;3.80;;;;;;;-142.57;100.00;55791.94;5025327;28;20048;-79
2023/12/19 01:50:43;;;;;;;8.48;3.70;;;;;;;-142.57;100.00;55810.13;5029798;28;20087;-78
2023/12/19 01:53:12;;;;;;;7.07;3.88;;;;;;;-142.57;100.00;55808.13;5034494;28;20029;-78
2023/12/19 01:55:40;;;;;;;7.00;3.67;;;;;;;-142.57;100.00;55771.75;5022690;28;20488;-78
2023/12/19 01:58:07;;;;;;;6.72;3.63;;;;;;;-142.57;100.00;55749.53;5017003;28;20045;-80
2023/12/19 02:00:35;;;;;;;6.25;3.72;;;;;;;-142.57;100.00;55798.00;5017312;28;20094;-81
2023/12/19 02:03:01;;;;;;;5.38;3.28;;;;;;;-142.57;100.00;55765.69;5038278;28;20029;-78
2023/12/19 02:05:27;;;;;;;6.30;3.42;;;;;;;-142.57;100.00;55741.44;5020573;28;20411;-77
2023/12/19 02:07:53;;;;;;;5.38;3.15;;;;;;;-142.57;100.00;55741.44;5034400;28;20041;-79
2023/12/19 02:10:18;;;;;;;5.35;3.10;;;;;;;-142.57;100.00;55684.88;5034628;28;20037;-79
2023/12/19 02:12:44;;;;;;;6.07;3.20;;;;;;;-142.57;100.00;55699.00;5034315;28;20373;-78
2023/12/19 02:15:10;;;;;;;5.38;3.03;;;;;;;-142.57;100.00;55697.00;5033982;28;20113;-77
2023/12/19 02:17:35;;;;;;;7.15;3.35;;;;;;;-142.57;100.00;55745.47;5035190;28;20473;-76
2023/12/19 02:20:01;;;;;;;6.60;3.13;;;;;;;-142.57;100.00;55777.81;5035442;28;20041;-79
2023/12/19 02:22:29;;;;;;;6.57;2.95;;;;;;;-142.57;100.00;55769.72;5036136;28;20049;-79
2023/12/19 02:24:56;;;;;;;5.35;2.67;;;;;;;-142.57;100.00;55743.47;5035003;28;20026;-79
2023/12/19 02:27:24;;;;;;;8.30;2.78;;;;;;;-142.57;100.00;55729.31;5034203;28;20453;-79
2023/12/19 02:29:49;;;;;;;6.65;2.90;;;;;;;-142.57;100.00;55773.78;5034895;28;20033;-79
2023/12/19 02:32:15;;;;;;;5.28;2.92;;;;;;;-142.57;100.00;55781.84;5033922;28;20022;-79
2023/12/19 02:34:41;;;;;;;6.55;3.08;;;;;;;-142.57;100.00;55739.41;5016198;28;20038;-78
2023/12/19 02:37:06;;;;;;;5.30;2.95;;;;;;;-142.57;100.00;55709.09;5037057;28;20060;-77
2023/12/19 02:39:32;;;;;;;6.55;3.40;;;;;;;-142.57;100.00;55701.03;5021631;28;20400;-80
2023/12/19 02:41:57;;;;;;;7.80;2.85;;;;;;;-142.57;100.00;55711.13;5034453;28;20045;-78
2023/12/19 02:44:23;;;;;;;6.25;3.17;;;;;;;-142.57;100.00;55676.78;5034655;28;20041;-77
2023/12/19 02:46:48;;;;;;;4.80;3.10;;;;;;;-142.57;100.00;55686.88;5034074;28;20088;-78
2023/12/19 02:49:15;;;;;;;4.60;2.90;;;;;;;-142.57;100.00;55684.88;5035299;28;20435;-78
2023/12/19 02:51:40;;;;;;;5.50;3.20;;;;;;;-142.57;100.00;55652.53;5033642;28;20071;-80
2023/12/19 02:54:06;;;;;;;6.40;2.83;;;;;;;-142.57;100.00;55662.63;5033717;28;20068;-78
2023/12/19 02:56:34;;;;;;;4.00;2.70;;;;;;;-142.57;100.00;55688.91;5034492;28;20458;-77
2023/12/19 02:59:00;;;;;;;3.92;2.50;;;;;;;-142.57;100.00;55684.88;4999493;28;20041;-78
2023/12/19 03:01:25;;;;;;;4.63;2.83;;;;;;;-142.57;100.00;55705.06;5033137;28;20029;-78
2023/12/19 03:03:51;;;;;;;5.18;3.17;;;;;;;-142.57;100.00;55686.88;5015949;28;20103;-78
2023/12/19 03:06:16;;;;;;;6.32;2.50;;;;;;;-142.57;100.00;55715.16;5033522;28;20029;-79
2023/12/19 03:08:46;;;;;;;4.15;2.67;;;;;;;-142.57;100.00;55690.94;5033261;28;20411;-79
2023/12/19 03:11:12;;;;;;;3.28;2.30;;;;;;;-142.57;100.00;55705.06;5029500;28;20041;-82
2023/12/19 03:13:38;;;;;;;6.72;2.60;;;;;;;-142.57;100.00;55743.47;5015174;28;20059;-80
2023/12/19 03:16:05;;;;;;;3.35;2.38;;;;;;;-142.57;100.00;55761.66;5033754;28;20034;-79
2023/12/19 03:18:30;;;;;;;2.40;1.77;;;;;;;-142.57;100.00;55743.47;5034143;28;20041;-78
2023/12/19 03:20:56;;;;;;;6.38;2.40;;;;;;;-142.57;100.00;55709.09;5033357;28;20037;-79
2023/12/19 03:23:25;;;;;;;3.15;2.28;;;;;;;-142.57;100.00;55703.06;5033136;28;20067;-81
2023/12/19 03:25:51;;;;;;;4.70;2.60;;;;;;;-142.57;100.00;55705.06;5033729;28;20506;-78
2023/12/19 03:28:16;;;;;;;3.22;1.95;;;;;;;-142.57;100.00;55777.81;5033505;28;20057;-80
2023/12/19 03:30:42;;;;;;;3.45;2.38;;;;;;;-142.57;100.00;55755.59;5033147;28;20128;-78
2023/12/19 03:33:07;;;;;;;3.03;1.88;;;;;;;-142.57;100.00;55725.28;5032978;28;20035;-81
2023/12/19 03:35:38;;;;;;;6.68;2.00;;;;;;;-142.57;100.00;55741.44;5015749;28;20048;-79
2023/12/19 03:38:04;;;;;;;3.92;1.83;;;;;;;-142.57;100.00;55713.16;5033446;28;20045;-80
2023/12/19 03:40:29;;;;;;;3.78;2.10;;;;;;;-142.57;100.00;55745.47;5033493;28;20017;-78
2023/12/19 03:42:55;;;;;;;3.20;2.20;;;;;;;-142.57;100.00;55725.28;5033440;28;20026;-79
2023/12/19 03:45:20;;;;;;;3.65;2.22;;;;;;;-142.57;100.00;55765.69;5032746;28;20381;-78
2023/12/19 03:47:46;;;;;;;3.45;2.15;;;;;;;-142.57;100.00;55747.50;5033307;28;20029;-80
2023/12/19 03:50:11;;;;;;;3.75;2.15;;;;;;;-142.57;100.00;55789.94;5033120;28;20124;-79
2023/12/19 03:52:37;;;;;;;4.00;2.08;;;;;;;-142.57;100.00;55757.59;5032899;28;20025;-80
2023/12/19 03:55:03;;;;;;;3.28;2.30;;;;;;;-142.57;100.00;55763.66;5032703;28;20057;-79
2023/12/19 03:57:29;;;;;;;4.32;2.38;;;;;;;-142.57;100.00;55737.41;5032265;28;20044;-80
2023/12/19 03:59:54;;;;;;;3.28;2.05;;;;;;;-142.57;100.00;55749.53;5032939;28;20037;-78
2023/12/19 04:02:20;;;;;;;3.50;1.95;;;;;;;-142.57;100.00;55709.09;5024748;28;20029;-77
2023/12/19 04:04:45;;;;;;;3.10;2.08;;;;;;;-142.57;100.00;55684.88;5031691;28;20116;-78
2023/12/19 04:07:11;;;;;;;6.75;2.42;;;;;;;-142.57;100.00;55735.38;5032313;28;20034;-79
2023/12/19 04:09:37;;;;;;;4.03;2.03;;;;;;;-142.57;100.00;55717.19;5032368;28;20038;-80
2023/12/19 04:12:03;;;;;;;3.60;1.85;;;;;;;-142.57;100.00;55733.34;5014294;28;20033;-80
2023/12/19 04:14:32;;;;;;;3.00;2.05;;;;;;;-142.57;100.00;55729.31;5013406;28;20026;-79
2023/12/19 04:16:58;;;;;;;4.43;2.42;;;;;;;-142.57;100.00;55692.94;4995676;28;20495;-81
2023/12/19 04:19:23;;;;;;;3.03;2.10;;;;;;;-142.57;100.00;55711.13;5029408;28;20429;-78
2023/12/19 04:21:50;;;;;;;3.13;1.90;;;;;;;-142.57;100.00;55709.09;5013886;28;20064;-79
2023/12/19 04:24:16;;;;;;;2.92;2.17;;;;;;;-142.57;100.00;55733.34;5032279;28;20037;-79
2023/12/19 04:26:42;;;;;;;3.30;1.98;;;;;;;-142.57;100.00;55741.44;5032095;28;20033;-79
2023/12/19 04:29:08;;;;;;;3.00;2.15;;;;;;;-142.57;100.00;55733.34;5030071;28;20559;-79
2023/12/19 04:31:34;;;;;;;5.78;2.08;;;;;;;-142.57;100.00;55741.44;5022308;28;20036;-81
2023/12/19 04:33:59;;;;;;;4.55;2.15;;;;;;;-142.57;100.00;55759.63;5014320;28;20124;-79
2023/12/19 04:36:25;;;;;;;2.95;1.65;;;;;;;-142.57;100.00;55737.41;5031577;28;20072;-79
2023/12/19 04:38:51;;;;;;;3.45;1.92;;;;;;;-142.57;100.00;55763.66;5031139;28;20089;-78
2023/12/19 04:41:16;;;;;;;2.85;1.75;;;;;;;-142.57;100.00;55743.47;5023745;28;20042;-77
2023/12/19 04:43:42;;;;;;;3.10;2.00;;;;;;;-142.57;100.00;55703.06;5032840;28;20072;-79
2023/12/19 04:46:08;;;;;;;6.00;1.83;;;;;;;-142.57;100.00;55737.41;5033893;28;20036;-79
2023/12/19 04:48:34;;;;;;;5.90;1.73;;;;;;;-142.57;100.00;55707.09;5026573;28;20198;-78
2023/12/19 04:51:00;;;;;;;4.95;1.52;;;;;;;-142.57;100.00;55753.56;5025854;28;20018;-77
2023/12/19 04:53:26;;;;;;;6.38;1.70;;;;;;;-142.57;100.00;55737.41;5008071;28;20404;-78
2023/12/19 04:55:52;;;;;;;2.50;1.52;;;;;;;-142.57;100.00;55715.16;5024368;28;20034;-78
2023/12/19 04:58:18;;;;;;;3.85;1.30;;;;;;;-142.57;100.00;55666.69;5025240;28;20044;-77
2023/12/19 05:00:43;;;;;;;3.88;1.73;;;;;;;-142.57;100.00;55686.88;5025755;28;20499;-79
2023/12/19 05:03:09;;;;;;;2.33;1.63;;;;;;;-142.57;100.00;55648.50;5025744;28;20140;-80
2023/12/19 05:05:37;;;;;;;2.95;1.80;;;;;;;-142.57;100.00;55658.59;5029528;28;20120;-80
2023/12/19 05:08:03;;;;;;;2.63;1.63;;;;;;;-142.57;100.00;55674.75;5013345;28;20465;-79
2023/12/19 05:10:28;;;;;;;3.67;2.00;;;;;;;-142.57;100.00;55725.28;5031806;28;20117;-78
2023/12/19 05:12:54;;;;;;;2.83;1.75;;;;;;;-142.57;100.00;55709.09;5030745;28;20026;-79
2023/12/19 05:15:19;;;;;;;3.50;1.98;;;;;;;-142.57;100.00;55721.22;5031131;28;20083;-78
2023/12/19 05:17:45;;;;;;;6.88;1.48;;;;;;;-142.57;100.00;55682.84;5031712;28;20033;-81
2023/12/19 05:20:11;;;;;;;5.18;1.83;;;;;;;-142.57;100.00;55660.63;5031145;28;20039;-81
2023/12/19 05:22:36;;;;;;;3.13;1.83;;;;;;;-142.57;100.00;55650.50;5031115;28;20045;-79
2023/12/19 05:25:03;;;;;;;2.63;1.48;;;;;;;-142.57;100.00;55652.53;5030778;28;20101;-78
2023/12/19 05:27:29;;;;;;;3.42;2.00;;;;;;;-142.57;100.00;55644.47;5028194;28;20041;-78
2023/12/19 05:29:54;;;;;;;4.97;2.03;;;;;;;-142.57;100.00;55628.28;5013056;28;20479;-79
2023/12/19 05:32:23;;;;;;;4.82;2.50;;;;;;;-142.57;100.00;55652.53;5031284;28;20021;-78
2023/12/19 05:34:48;;;;;;;7.00;2.38;;;;;;;-142.57;100.00;55644.47;5030847;28;20048;-79
2023/12/19 05:37:14;;;;;;;5.00;2.50;;;;;;;-142.57;100.00;55640.41;5013094;28;20527;-80
2023/12/19 05:39:42;;;;;;;4.68;2.30;;;;;;;-142.57;100.00;55600.00;5031599;28;20512;-78
2023/12/19 05:42:07;;;;;;;5.85;2.78;;;;;;;-142.57;100.00;55624.25;5031195;28;20021;-80
2023/12/19 05:44:33;;;;;;;11.07;2.40;;;;;;;-142.57;100.00;55616.16;5030282;28;20064;-81
2023/12/19 05:46:58;;;;;;;6.40;2.35;;;;;;;-142.57;100.00;55632.34;5031289;28;20508;-81
2023/12/19 05:49:24;;;;;;;6.13;3.25;;;;;;;-142.57;100.00;55634.34;5030705;28;20108;-79
2023/12/19 05:51:50;;;;;;;4.53;2.78;;;;;;;-142.57;100.00;55656.56;5031320;28;20021;-81
2023/12/19 05:54:18;;;;;;;6.10;3.30;;;;;;;-142.57;100.00;55567.69;5029914;28;20038;-81
2023/12/19 05:56:43;;;;;;;6.80;3.22;;;;;;;-142.57;100.00;55563.63;5030924;28;20160;-77
2023/12/19 05:59:09;;;;;;;8.85;3.97;;;;;;;-142.57;100.00;55595.97;5031226;28;20064;-80
2023/12/19 06:01:42;;;;;;;8.00;2.95;;;;;;;-142.57;100.00;55559.59;5008912;28;20042;-79
2023/12/19 06:04:08;;;;;;;5.57;2.60;;;;;;;-142.57;100.00;55583.84;5014249;28;20033;-79
2023/12/19 06:06:40;;;;;;;5.25;2.95;;;;;;;-142.57;100.00;55575.75;5028533;28;20437;-78
2023/12/19 06:09:05;;;;;;;10.80;3.67;;;;;;;-142.57;100.00;55579.81;5030632;28;20052;-79
2023/12/19 06:11:31;;;;;;;9.13;3.55;;;;;;;-142.57;100.00;55565.66;5030454;28;20025;-81
2023/12/19 06:13:56;;;;;;;10.25;3.65;;;;;;;-142.57;100.00;55610.09;5006072;28;20083;-79
2023/12/19 06:16:22;;;;;;;8.60;3.80;;;;;;;-142.57;100.00;55624.25;5030632;28;20072;-80
2023/12/19 06:18:47;;;;;;;11.98;4.28;;;;;;;-142.57;100.00;55606.06;5031357;28;20477;-76
2023/12/19 06:21:13;;;;;;;20.23;5.10;;;;;;;-142.57;100.00;55583.84;5012712;28;20061;-79
2023/12/19 06:23:39;;;;;;;14.38;6.15;;;;;;;-142.57;100.00;55602.03;5030490;28;20054;-78
2023/12/19 06:26:06;;;;;;;12.68;6.22;;;;;;;-142.57;100.00;55585.84;5015909;28;20453;-78
2023/12/19 06:28:32;;;;;;;11.32;4.80;;;;;;;-142.57;100.00;55620.22;5025440;28;20029;-80
2023/12/19 06:30:58;;;;;;;6.45;3.80;;;;;;;-142.57;100.00;55600.00;5030428;28;20099;-80
2023/12/19 06:33:23;;;;;;;10.07;4.07;;;;;;;-142.57;100.00;55604.03;5030142;28;20475;-79
2023/12/19 06:35:51;;;;;;;14.55;4.50;;;;;;;-142.57;100.00;55600.00;5030402;28;20416;-80
2023/12/19 06:38:18;;;;;;;13.05;4.15;;;;;;;-142.57;100.00;55595.97;5034285;28;20093;-81
2023/12/19 06:40:43;;;;;;;14.75;5.68;;;;;;;-142.57;100.00;55587.88;5034290;28;20021;-82
2023/12/19 06:43:10;;;;;;;21.45;5.00;;;;;;;-142.57;100.00;55575.75;5016269;28;20045;-79
2023/12/19 06:45:37;;;;;;;100.90;8.10;;;;;;;-142.57;100.00;55579.81;5033958;28;20464;-79
2023/12/19 06:48:03;;;;;;;44.60;6.10;;;;;;;-142.57;100.00;55587.88;5035110;28;20048;-81
2023/12/19 06:50:31;;;;;;;15.05;4.95;;;;;;;-142.57;100.00;55608.09;5016306;28;20509;-79
2023/12/19 06:52:57;;;;;;;24.30;6.55;;;;;;;-142.57;100.00;55587.88;5031018;28;20075;-83
2023/12/19 06:55:24;;;;;;;14.90;5.15;;;;;;;-142.57;100.00;55591.91;5029830;28;20033;-81
2023/12/19 06:57:50;;;;;;;14.02;4.57;;;;;;;-142.57;100.00;55565.66;5029328;28;20041;-81
2023/12/19 07:00:16;;;;;;;35.92;5.68;;;;;;;-142.57;100.00;55597.97;5027868;28;20510;-80
2023/12/19 07:02:42;;;;;;;79.15;7.45;;;;;;;-142.57;100.00;55626.28;5029358;28;20044;-81
2023/12/19 07:05:08;;;;;;;63.45;6.50;;;;;;;-142.57;100.00;55686.88;5028546;28;20025;-82
2023/12/19 07:07:33;;;;;;;49.53;6.93;;;;;;;-142.57;100.00;55697.00;5029965;28;20484;-79
2023/12/19 07:10:01;;;;;;;13.45;5.13;;;;;;;-142.57;100.00;55701.03;5030106;28;20092;-85
2023/12/19 07:12:26;;;;;;;13.10;4.75;;;;;;;-142.57;100.00;55717.19;5011626;28;20030;-80
2023/12/19 07:14:52;;;;;;;45.70;7.47;;;;;;;-142.57;100.00;55751.53;5028849;28;20387;-79
2023/12/19 07:17:17;;;;;;;25.33;5.75;;;;;;;-142.57;100.00;55785.91;5027645;28;20033;-80
2023/12/19 07:19:43;;;;;;;16.83;5.45;;;;;;;-142.57;100.00;55826.31;5029359;28;20041;-80
2023/12/19 07:22:09;;;;;;;56.05;7.38;;;;;;;-142.57;100.00;55854.59;5029007;28;20061;-78
2023/12/19 07:24:34;;;;;;;47.45;7.60;;;;;;;-142.57;100.00;55872.78;5027512;28;20034;-79
2023/12/19 07:27:00;;;;;;;20.60;6.65;;;;;;;-142.57;100.00;55992.00;5028297;28;20507;-79
2023/12/19 07:29:25;;;;;;;20.00;6.35;;;;;;;-142.57;100.00;56036.44;5027861;28;20033;-82
2023/12/19 07:31:51;;;;;;;46.00;8.55;;;;;;;-142.57;100.00;56121.31;5010271;28;20029;-82
2023/12/19 07:34:17;;;;;;;47.33;7.88;;;;;;;-142.57;100.00;56194.06;5030304;28;20021;-81
2023/12/19 07:36:43;;;;;;;55.30;8.38;;;;;;;-142.57;100.00;56216.28;5033533;28;20113;-81
2023/12/19 07:39:10;;;;;;;65.65;8.50;;;;;;;-142.57;96.45;56282.97;5033751;28;20033;-81
2023/12/19 07:41:35;;;;;;;37.10;7.05;;;;;;;-142.57;88.91;56440.59;5034024;28;20045;-79
2023/12/19 07:44:02;;;;;;;56.67;8.43;;;;;;;-142.57;81.68;56584.09;5028808;28;20029;-81
2023/12/19 07:46:28;;;;;;;30.08;7.85;;;;;;;-142.57;79.50;56626.53;5026152;28;20033;-82
2023/12/19 07:48:53;;;;;;;56.40;8.35;;;;;;;-142.57;79.66;56634.63;5012302;28;20092;-82
2023/12/19 07:51:23;;;;;;;37.05;8.40;;;;;;;-142.57;83.78;56580.06;5031917;28;20036;-85
2023/12/19 07:53:54;;;;;;;47.75;7.65;;;;;;;-142.57;81.95;56592.19;5009183;28;20041;-82
2023/12/19 07:56:20;;;;;;;41.45;8.70;;;;;;;-142.57;82.62;56541.66;5029781;28;20029;-81
2023/12/19 07:58:45;;;;;;;40.90;7.88;;;;;;;-142.57;83.46;56533.56;5026315;28;20025;-84
2023/12/19 08:01:12;;;;;;;126.13;13.00;;;;;;;-142.57;86.24;56464.84;5029061;28;20128;-82
2023/12/19 08:03:39;;;;;;;120.10;11.23;;;;;;;-142.57;90.77;56327.44;5027173;28;20039;-84
2023/12/19 08:06:05;;;;;;;86.15;9.88;;;;;;;-142.57;92.93;56307.22;5026964;28;20037;-81
2023/12/19 08:08:31;;;;;;;76.15;8.90;;;;;;;-142.57;91.62;56299.16;5027793;28;20045;-81
2023/12/19 08:10:57;;;;;;;79.38;8.85;;;;;;;-142.57;91.29;56323.41;5031290;28;20021;-80
2023/12/19 08:13:24;;;;;;;1999.90;999.90;;;;;;;-142.57;92.10;56319.34;5029488;28;20040;-79
2023/12/19 08:15:50;;;;;;;1999.90;978.75;;;;;;;-142.57;90.65;56357.75;5027936;28;20163;-81
2023/12/19 08:18:16;;;;;;;1999.90;914.80;;;;;;;-142.57;96.76;56319.34;5027078;28;20120;-81
2023/12/19 08:20:42;;;;;;;1999.90;554.90;;;;;;;-142.57;96.97;56319.34;5027153;28;20042;-79
2023/12/19 08:23:11;;;;;;;1999.90;364.75;;;;;;;-142.57;99.23;56262.78;4993111;28;20447;-79
2023/12/19 08:25:41;;;;;;;1563.03;138.82;;;;;;;-142.57;95.04;56274.91;5027054;28;20033;-81
2023/12/19 08:28:08;;;;;;;989.50;80.47;;;;;;;-142.57;98.44;56250.66;5027426;28;20044;-83
2023/12/19 08:30:34;;;;;;;459.98;35.92;;;;;;;-142.57;98.45;56244.59;5027051;28;20040;-80
2023/12/19 08:33:01;;;;;;;914.38;65.88;;;;;;;-142.57;100.00;56226.41;5026229;28;20435;-80
2023/12/19 08:35:27;;;;;;;575.33;39.03;;;;;;;-142.57;98.24;56246.59;5026792;28;20075;-80
2023/12/19 08:37:52;;;;;;;135.43;14.00;;;;;;;-142.57;97.19;56258.72;5009289;28;20037;-81
2023/12/19 08:40:19;;;;;;;84.35;11.05;;;;;;;-142.57;96.02;56262.78;5026832;28;20036;-83
2023/12/19 08:42:44;;;;;;;528.20;36.28;;;;;;;-142.57;97.72;56268.84;5026856;28;20044;-83
2023/12/19 08:45:17;;;;;;;934.00;60.17;;;;;;;-142.57;100.00;56236.50;5026641;28;20021;-82
2023/12/19 08:47:44;;;;;;;1999.90;139.57;;;;;;;-142.57;100.00;56188.00;5008146;28;20067;-85
2023/12/19 08:50:12;;;;;;;728.17;47.53;;;;;;;-142.57;100.00;56196.09;5025888;28;20029;-83
2023/12/19 08:52:38;;;;;;;295.20;22.75;;;;;;;-142.57;100.00;56218.31;5025042;28;20037;-84
2023/12/19 08:55:07;;;;;;;558.10;47.25;;;;;;;-142.57;100.00;56230.44;5025503;28;20506;-84
2023/12/19 08:57:35;;;;;;;243.68;24.95;;;;;;;-142.57;100.00;56244.59;5023321;28;20052;-84
2023/12/19 09:00:04;;;;;;;39.78;8.57;;;;;;;-142.57;100.00;56198.09;5019647;28;20029;-83
2023/12/19 09:02:30;;;;;;;25.30;8.50;;;;;;;-142.57;100.00;56252.66;5025656;28;20021;-79
2023/12/19 09:04:55;;;;;;;29.48;7.63;;;;;;;-142.57;99.07;56232.47;5024273;28;20034;-79
2023/12/19 09:07:21;;;;;;;87.25;10.20;;;;;;;-142.57;98.13;56246.59;5023764;28;20026;-85
2023/12/19 09:09:47;;;;;;;13.82;7.07;;;;;;;-142.57;96.82;56206.19;5022387;28;20017;-82
2023/12/19 09:12:12;;;;;;;14.73;6.63;;;;;;;-142.57;98.88;56190.03;5023114;28;20034;-81
2023/12/19 09:14:38;;;;;;;15.43;6.85;;;;;;;-142.57;97.33;56198.09;5005777;28;20126;-83
2023/12/19 09:17:04;;;;;;;15.27;6.05;;;;;;;-142.57;100.00;56190.03;5004534;28;20148;-81
2023/12/19 09:19:31;;;;;;;21.75;6.28;;;;;;;-142.57;100.00;56161.72;5024619;28;20468;-80
2023/12/19 09:21:57;;;;;;;68.40;8.07;;;;;;;-142.57;100.00;56165.78;5002913;28;20515;-81
2023/12/19 09:24:23;;;;;;;62.33;7.07;;;;;;;-142.57;100.00;56137.50;5027392;28;20116;-82
2023/12/19 09:26:49;;;;;;;18.90;4.25;;;;;;;-142.57;100.00;56125.38;5011496;28;20041;-81
2023/12/19 09:29:14;;;;;;;21.23;4.90;;;;;;;-142.57;100.00;56089.00;5032244;28;20556;-81
2023/12/19 09:31:46;;;;;;;34.17;8.32;;;;;;;-142.57;100.00;56068.78;5026707;28;20025;-79
2023/12/19 09:34:12;;;;;;;17.23;6.07;;;;;;;-142.57;100.00;56072.81;5031936;28;20029;-82
2023/12/19 09:36:37;;;;;;;18.80;5.30;;;;;;;-142.57;100.00;56024.31;5030577;28;20534;-78
2023/12/19 09:39:03;;;;;;;10.98;4.90;;;;;;;-142.57;100.00;56020.28;5017166;28;20033;-79
2023/12/19 09:41:29;;;;;;;32.53;5.68;;;;;;;-142.57;100.00;55998.06;5027069;28;20121;-81
2023/12/19 09:43:55;;;;;;;17.10;4.93;;;;;;;-142.57;100.00;55994.00;5012634;28;20112;-81
2023/12/19 09:46:24;;;;;;;17.45;4.50;;;;;;;-142.57;100.00;56010.19;5009771;28;20132;-79
2023/12/19 09:48:50;;;;;;;9.40;4.30;;;;;;;-142.57;100.00;56044.53;5027810;28;20052;-79
2023/12/19 09:51:26;;;;;;;15.35;4.93;;;;;;;-142.57;100.00;56032.41;5027223;28;20492;-79
2023/12/19 09:53:54;;;;;;;21.95;4.75;;;;;;;-142.57;100.00;56016.25;5029038;28;20037;-83
2023/12/19 09:56:22;;;;;;;14.07;5.00;;;;;;;-142.57;100.00;56050.59;5029425;28;20032;-79
2023/12/19 09:58:48;;;;;;;46.47;8.10;;;;;;;-142.57;100.00;56050.59;5012880;28;20117;-79
2023/12/19 10:01:17;;;;;;;47.92;6.93;;;;;;;-142.57;100.00;56044.53;5009834;28;20080;-82
2023/12/19 10:03:43;;;;;;;73.07;7.75;;;;;;;-142.57;100.00;56078.88;5028371;28;20539;-82
2023/12/19 10:06:09;;;;;;;22.20;5.70;;;;;;;-142.57;100.00;56105.16;5025312;28;20034;-83
2023/12/19 10:08:39;;;;;;;301.67;27.80;;;;;;;-142.57;100.00;56103.13;5025305;28;20369;-80
2023/12/19 10:11:07;;;;;;;152.60;16.40;;;;;;;-142.57;100.00;56153.66;5020992;28;20067;-79
2023/12/19 10:13:35;;;;;;;228.85;19.98;;;;;;;-142.57;100.00;56149.63;5027042;28;20124;-82
2023/12/19 10:16:08;;;;;;;55.58;7.95;;;;;;;-142.57;100.00;56157.69;5005735;28;20046;-81
2023/12/19 10:18:36;;;;;;;32.10;6.47;;;;;;;-142.57;100.00;56198.09;5027409;28;20045;-80
2023/12/19 10:21:08;;;;;;;160.48;17.48;;;;;;;-142.57;100.00;56202.16;5012262;28;20476;-81
2023/12/19 10:23:34;;;;;;;92.67;9.27;;;;;;;-142.57;100.00;56234.47;5032102;28;20049;-79
2023/12/19 10:26:00;;;;;;;111.43;10.77;;;;;;;-142.57;100.00;56244.59;5014266;28;20041;-80
2023/12/19 10:28:25;;;;;;;303.52;27.20;;;;;;;-142.57;100.00;56246.59;5031411;28;20037;-82
2023/12/19 10:31:09;;;;;;;90.63;9.90;;;;;;;-142.57;100.00;56262.78;5028034;28;20403;-78
2023/12/19 10:33:45;;;;;;;98.60;11.35;;;;;;;-142.57;100.00;56242.56;5027459;28;20033;-80
2023/12/19 10:36:23;;;;;;;66.70;11.23;;;;;;;-142.57;100.00;56266.81;5028183;28;20037;-79
2023/12/19 10:38:48;;;;;;;15.68;4.72;;;;;;;-142.57;100.00;56313.28;5012003;28;20045;-80
2023/12/19 10:41:25;;;;;;;98.65;15.30;;;;;;;-142.57;100.00;56319.34;5024959;28;20478;-81
2023/12/19 10:43:53;;;;;;;30.40;7.55;;;;;;;-142.57;100.00;56335.53;5027142;28;20087;-79
2023/12/19 10:46:24;;;;;;;109.70;12.07;;;;;;;-142.57;100.00;56357.75;5026669;28;20037;-81
2023/12/19 10:48:51;;;;;;;28.02;6.07;;;;;;;-142.57;100.00;56398.16;5027383;28;20033;-80
2023/12/19 10:51:36;;;;;;;9.82;4.18;;;;;;;-142.57;100.00;56404.22;5026932;28;20038;-81
2023/12/19 10:54:05;;;;;;;37.53;5.93;;;;;;;-142.57;99.72;56448.69;5022634;28;20053;-81
2023/12/19 10:56:36;;;;;;;219.27;21.95;;;;;;;-142.57;97.65;56472.94;5022358;28;20143;-80
2023/12/19 10:59:05;;;;;;;103.05;12.70;;;;;;;-142.57;98.60;56501.25;5026873;28;20037;-80
2023/12/19 11:01:38;;;;;;;59.17;7.57;;;;;;;-142.57;96.78;56501.25;5027827;28;20018;-81